createdAt,value
2023-04-06T00:00:18.618Z,3.80
2023-04-06T00:02:50.570Z,3.90
2023-04-06T00:05:25.145Z,3.80
2023-04-06T00:07:57.156Z,3.70
2023-04-06T00:10:29.086Z,3.70
2023-04-06T00:13:01.161Z,3.70
2023-04-06T00:15:33.042Z,3.70
2023-04-06T00:18:05.147Z,3.70
2023-04-06T00:20:39.681Z,3.60
2023-04-06T00:23:11.773Z,3.60
2023-04-06T00:25:43.612Z,3.60
2023-04-06T00:28:15.777Z,3.60
2023-04-06T00:30:47.603Z,3.50
2023-04-06T00:33:19.696Z,3.50
2023-04-06T00:35:54.227Z,3.40
2023-04-06T00:38:26.452Z,3.40
2023-04-06T00:40:58.780Z,3.40
2023-04-06T00:43:31.025Z,3.30
2023-04-06T00:46:03.212Z,3.30
2023-04-06T00:48:35.352Z,3.30
2023-04-06T00:51:09.785Z,3.20
2023-04-06T00:53:41.826Z,3.20
2023-04-06T00:56:13.876Z,3.20
2023-04-06T00:58:46.025Z,3.10
2023-04-06T01:01:17.987Z,3.10
2023-04-06T01:03:51.275Z,3.10
2023-04-06T01:06:26.248Z,3.00
2023-04-06T01:08:58.306Z,3.00
2023-04-06T01:11:31.032Z,3.00
2023-04-06T01:14:05.202Z,2.90
2023-04-06T01:16:38.114Z,2.90
2023-04-06T01:19:11.134Z,2.90
2023-04-06T01:21:45.833Z,2.90
2023-04-06T01:24:20.782Z,2.80
2023-04-06T01:26:52.814Z,2.80
2023-04-06T01:29:25.245Z,2.80
2023-04-06T01:31:57.262Z,2.80
2023-04-06T01:34:29.341Z,2.80
2023-04-06T01:37:01.411Z,2.80
2023-04-06T01:39:36.012Z,2.80
2023-04-06T01:42:08.082Z,2.70
2023-04-06T01:44:40.216Z,2.80
2023-04-06T01:47:12.038Z,2.70
2023-04-06T01:49:44.052Z,2.70
2023-04-06T01:52:16.851Z,2.70
2023-04-06T01:54:51.767Z,2.70
2023-04-06T01:57:23.851Z,2.60
2023-04-06T01:59:55.687Z,2.70
2023-04-06T02:02:27.941Z,2.70
2023-04-06T02:05:00.231Z,2.70
2023-04-06T02:07:32.433Z,2.70
2023-04-06T02:10:13.079Z,2.80
2023-04-06T02:12:45.401Z,2.80
2023-04-06T02:15:17.570Z,2.80
2023-04-06T02:17:49.422Z,2.80
2023-04-06T02:20:21.690Z,2.80
2023-04-06T02:22:53.828Z,2.80
2023-04-06T02:25:29.081Z,2.80
2023-04-06T02:28:01.167Z,2.80
2023-04-06T02:30:33.826Z,2.80
2023-04-06T02:33:05.994Z,2.80
2023-04-06T02:35:38.059Z,2.80
2023-04-06T02:38:09.974Z,2.80
2023-04-06T02:40:44.569Z,2.80
2023-04-06T02:43:18.159Z,2.80
2023-04-06T02:45:50.598Z,2.90
2023-04-06T02:48:22.875Z,2.90
2023-04-06T02:50:54.912Z,2.90
2023-04-06T02:53:27.261Z,2.90
2023-04-06T02:56:01.926Z,3.00
2023-04-06T02:58:33.985Z,3.00
2023-04-06T03:01:06.099Z,3.00
2023-04-06T03:03:38.316Z,3.00
2023-04-06T03:06:10.656Z,3.10
2023-04-06T03:08:42.722Z,3.10
2023-04-06T03:11:17.136Z,3.10
2023-04-06T03:13:49.161Z,3.10
2023-04-06T03:16:21.375Z,3.10
2023-04-06T03:18:53.561Z,3.10
2023-04-06T03:21:25.564Z,3.10
2023-04-06T03:23:57.590Z,3.10
2023-04-06T03:26:32.203Z,3.10
2023-04-06T03:29:04.238Z,3.10
2023-04-06T03:31:36.434Z,3.10
2023-04-06T03:34:08.633Z,3.10
2023-04-06T03:36:40.729Z,3.20
2023-04-06T03:39:13.542Z,3.10
2023-04-06T03:41:48.224Z,3.10
2023-04-06T03:44:20.910Z,3.10
2023-04-06T03:46:53.211Z,3.10
2023-04-06T03:49:25.423Z,3.10
2023-04-06T03:51:57.659Z,3.10
2023-04-06T03:54:29.715Z,3.10
2023-04-06T03:57:04.911Z,3.10
2023-04-06T03:59:37.029Z,3.10
2023-04-06T04:02:08.935Z,3.00
2023-04-06T04:04:41.436Z,3.10
2023-04-06T04:07:13.501Z,3.00
2023-04-06T04:09:45.653Z,3.00
2023-04-06T04:12:20.513Z,3.00
2023-04-06T04:14:52.536Z,3.00
2023-04-06T04:17:25.882Z,3.00
2023-04-06T04:19:58.001Z,3.00
2023-04-06T04:22:30.056Z,3.00
2023-04-06T04:25:01.899Z,3.00
2023-04-06T04:27:36.605Z,3.00
2023-04-06T04:30:09.522Z,3.00
2023-04-06T04:32:41.743Z,3.00
2023-04-06T04:35:14.642Z,2.90
2023-04-06T04:37:46.853Z,2.90
2023-04-06T04:40:18.946Z,2.90
2023-04-06T04:42:53.408Z,2.90
2023-04-06T04:45:25.578Z,2.80
2023-04-06T04:47:57.457Z,2.80
2023-04-06T04:50:29.538Z,2.80
2023-04-06T04:53:01.628Z,2.80
2023-04-06T04:55:33.765Z,2.70
2023-04-06T04:58:10.107Z,2.70
2023-04-06T05:00:42.159Z,2.70
2023-04-06T05:03:20.920Z,2.70
2023-04-06T05:05:53.253Z,2.60
2023-04-06T05:08:25.578Z,2.60
2023-04-06T05:10:57.718Z,2.60
2023-04-06T05:13:33.355Z,2.60
2023-04-06T05:16:06.137Z,2.50
2023-04-06T05:18:38.211Z,2.50
2023-04-06T05:21:11.608Z,2.50
2023-04-06T05:23:43.660Z,2.40
2023-04-06T05:26:15.751Z,2.60
2023-04-06T05:28:50.435Z,2.40
2023-04-06T05:31:22.551Z,2.40
2023-04-06T05:33:54.520Z,2.40
2023-04-06T05:36:26.543Z,2.40
2023-04-06T05:38:58.566Z,2.40
2023-04-06T05:41:30.733Z,2.30
2023-04-06T05:44:05.165Z,2.40
2023-04-06T05:46:37.650Z,2.40
2023-04-06T05:49:10.073Z,2.50
2023-04-06T05:51:42.250Z,2.50
2023-04-06T05:54:14.307Z,2.50
2023-04-06T05:56:46.329Z,2.50
2023-04-06T05:59:21.872Z,2.50
2023-04-06T06:01:54.101Z,2.60
2023-04-06T06:04:26.395Z,2.60
2023-04-06T06:06:58.418Z,2.60
2023-04-06T06:09:30.604Z,2.60
2023-04-06T06:12:02.451Z,2.60
2023-04-06T06:14:37.073Z,2.60
2023-04-06T06:17:09.855Z,2.60
2023-04-06T06:19:41.877Z,2.60
2023-04-06T06:22:13.954Z,2.70
2023-04-06T06:24:49.129Z,2.70
2023-04-06T06:27:21.534Z,2.80
2023-04-06T06:29:56.558Z,2.80
2023-04-06T06:32:28.614Z,2.90
2023-04-06T06:35:00.619Z,2.90
2023-04-06T06:37:32.812Z,2.90
2023-04-06T06:40:06.169Z,3.00
2023-04-06T06:42:38.277Z,3.00
2023-04-06T06:45:14.125Z,3.00
2023-04-06T06:47:46.257Z,3.10
2023-04-06T06:50:18.187Z,3.10
2023-04-06T06:52:50.290Z,3.10
2023-04-06T06:55:22.133Z,3.20
2023-04-06T06:57:54.305Z,3.20
2023-04-06T07:00:28.987Z,3.20
2023-04-06T07:03:01.280Z,3.30
2023-04-06T07:05:33.966Z,3.40
2023-04-06T07:08:06.465Z,3.40
2023-04-06T07:10:38.681Z,3.50
2023-04-06T07:13:11.119Z,3.50
2023-04-06T07:15:46.012Z,3.60
2023-04-06T07:18:18.925Z,3.70
2023-04-06T07:20:51.493Z,3.80
2023-04-06T07:23:23.643Z,3.80
2023-04-06T07:25:55.907Z,3.90
2023-04-06T07:28:28.038Z,3.90
2023-04-06T07:31:02.687Z,4.00
2023-04-06T07:33:34.715Z,4.10
2023-04-06T07:36:06.701Z,4.10
2023-04-06T07:38:38.877Z,4.20
2023-04-06T07:41:10.957Z,4.20
2023-04-06T07:43:42.845Z,4.30
2023-04-06T07:46:17.491Z,4.30
2023-04-06T07:48:51.097Z,4.40
2023-04-06T07:51:23.134Z,4.40
2023-04-06T07:53:55.077Z,4.50
2023-04-06T07:56:27.206Z,4.60
2023-04-06T07:58:59.339Z,4.60
2023-04-06T08:01:33.902Z,4.70
2023-04-06T08:04:06.562Z,4.80
2023-04-06T08:06:38.811Z,4.80
2023-04-06T08:09:10.994Z,4.90
2023-04-06T08:11:43.121Z,5.00
2023-04-06T08:14:15.194Z,5.10
2023-04-06T08:16:49.849Z,5.20
2023-04-06T08:19:21.902Z,5.30
2023-04-06T08:21:53.962Z,5.40
2023-04-06T08:24:26.055Z,5.40
2023-04-06T08:26:58.075Z,5.50
2023-04-06T08:29:30.221Z,5.60
2023-04-06T08:32:06.351Z,5.70
2023-04-06T08:34:38.421Z,5.70
2023-04-06T08:37:10.438Z,5.80
2023-04-06T08:39:42.486Z,5.90
2023-04-06T08:42:20.115Z,6.00
2023-04-06T08:44:53.538Z,6.10
2023-04-06T08:47:29.100Z,6.20
2023-04-06T08:50:04.986Z,6.30
2023-04-06T08:52:38.056Z,6.40
2023-04-06T08:55:10.506Z,6.50
2023-04-06T08:57:43.478Z,6.60
2023-04-06T09:00:16.995Z,6.70
2023-04-06T09:02:56.215Z,6.80
2023-04-06T09:05:28.633Z,6.90
2023-04-06T09:08:00.848Z,7.00
2023-04-06T09:10:33.666Z,7.10
2023-04-06T09:13:06.767Z,7.20
2023-04-06T09:15:39.432Z,7.20
2023-04-06T09:18:14.071Z,7.30
2023-04-06T09:20:46.119Z,7.40
2023-04-06T09:23:21.133Z,7.50
2023-04-06T09:25:53.187Z,7.60
2023-04-06T09:28:25.217Z,7.70
2023-04-06T09:30:57.270Z,7.80
2023-04-06T09:33:31.951Z,7.90
2023-04-06T09:36:04.230Z,8.00
2023-04-06T09:38:37.470Z,8.10
2023-04-06T09:41:09.643Z,8.20
2023-04-06T09:43:41.689Z,8.30
2023-04-06T09:46:14.388Z,8.40
2023-04-06T09:48:50.487Z,8.50
2023-04-06T09:51:24.207Z,8.60
2023-04-06T09:54:02.253Z,8.70
2023-04-06T09:56:38.665Z,8.80
2023-04-06T09:59:14.552Z,8.90
2023-04-06T10:01:49.526Z,9.00
2023-04-06T10:04:33.347Z,9.00
2023-04-06T10:07:07.901Z,9.10
2023-04-06T10:09:40.347Z,9.20
2023-04-06T10:12:14.239Z,9.30
2023-04-06T10:14:46.451Z,9.40
2023-04-06T10:17:18.543Z,9.50
2023-04-06T10:19:58.107Z,9.60
2023-04-06T10:22:33.231Z,9.60
2023-04-06T10:25:05.991Z,9.80
2023-04-06T10:27:38.068Z,9.90
2023-04-06T10:30:10.500Z,10.00
2023-04-06T10:32:42.582Z,10.10
2023-04-06T10:35:17.151Z,10.20
2023-04-06T10:37:52.438Z,10.30
2023-04-06T10:40:26.357Z,10.40
2023-04-06T10:43:08.858Z,10.50
2023-04-06T10:45:42.057Z,10.60
2023-04-06T10:48:15.100Z,10.70
2023-04-06T10:50:52.581Z,10.80
2023-04-06T10:53:26.598Z,10.90
2023-04-06T10:55:58.965Z,11.00
2023-04-06T10:58:31.917Z,11.10
2023-04-06T11:01:04.642Z,11.20
2023-04-06T11:03:44.441Z,11.30
2023-04-06T11:06:22.963Z,11.40
2023-04-06T11:08:55.957Z,11.50
2023-04-06T11:11:28.346Z,11.50
2023-04-06T11:14:02.196Z,11.60
2023-04-06T11:16:34.907Z,11.70
2023-04-06T11:19:07.517Z,11.90
2023-04-06T11:21:45.050Z,12.00
2023-04-06T11:24:19.063Z,12.20
2023-04-06T11:26:52.637Z,12.30
2023-04-06T11:29:26.600Z,12.40
2023-04-06T11:44:58.186Z,13.50
2023-04-06T11:47:31.631Z,13.60
2023-04-06T11:50:07.162Z,13.50
2023-04-06T11:52:43.321Z,13.60
2023-04-06T11:55:17.394Z,13.70
2023-04-06T11:57:50.971Z,13.80
2023-04-06T12:00:23.596Z,14.00
2023-04-06T12:05:34.569Z,14.70
2023-04-06T12:08:09.214Z,15.00
2023-04-06T12:10:41.315Z,15.20
2023-04-06T12:13:13.392Z,15.40
2023-04-06T12:15:45.649Z,15.70
2023-04-06T12:20:52.101Z,16.10
2023-04-06T12:23:26.761Z,16.70
2023-04-06T12:25:58.880Z,16.90
2023-04-06T12:28:31.376Z,17.10
2023-04-06T12:31:03.555Z,17.60
2023-04-06T12:33:36.608Z,18.10
2023-04-06T12:36:13.765Z,18.50
2023-04-06T12:38:49.439Z,19.00
2023-04-06T12:41:24.546Z,19.70
2023-04-06T12:44:00.844Z,19.60
2023-04-06T12:46:32.992Z,20.00
2023-04-06T12:49:05.155Z,20.20
2023-04-06T12:51:37.215Z,20.30
2023-04-06T12:54:13.085Z,20.50
2023-04-06T12:56:45.157Z,20.40
2023-04-06T12:59:17.662Z,20.30
2023-04-06T13:01:49.970Z,20.20
2023-04-06T13:04:22.125Z,20.10
2023-04-06T13:06:54.231Z,20.20
2023-04-06T13:09:32.184Z,20.30
2023-04-06T13:12:04.535Z,20.60
2023-04-06T13:14:37.009Z,21.00
2023-04-06T13:17:09.443Z,21.10
2023-04-06T13:19:41.519Z,21.00
2023-04-06T13:22:13.624Z,20.90
2023-04-06T13:24:48.293Z,20.80
2023-04-06T13:27:20.756Z,20.90
2023-04-06T13:29:52.903Z,21.00
2023-04-06T13:32:25.001Z,21.10
2023-04-06T13:34:57.380Z,20.80
2023-04-06T13:37:29.440Z,20.70
2023-04-06T13:40:05.870Z,20.60
2023-04-06T13:42:41.063Z,20.50
2023-04-06T13:45:13.529Z,20.30
2023-04-06T13:47:45.648Z,20.20
2023-04-06T13:50:17.882Z,20.30
2023-04-06T13:52:50.686Z,20.40
2023-04-06T13:55:25.558Z,20.60
2023-04-06T13:57:57.647Z,20.80
2023-04-06T14:00:29.858Z,21.10
2023-04-06T14:03:02.141Z,21.40
2023-04-06T14:08:06.688Z,21.60
2023-04-06T14:10:43.457Z,21.80
2023-04-06T14:13:16.601Z,22.00
2023-04-06T14:18:21.022Z,22.30
2023-04-06T14:20:56.529Z,22.20
2023-04-06T14:23:29.184Z,22.00
2023-04-06T14:26:07.977Z,21.80
2023-04-06T14:28:40.142Z,21.80
2023-04-06T14:31:14.358Z,21.80
2023-04-06T14:33:47.435Z,21.80
2023-04-06T14:36:20.249Z,21.70
2023-04-06T14:38:53.354Z,21.70
2023-04-06T14:41:28.153Z,21.70
2023-04-06T14:44:01.119Z,21.70
2023-04-06T14:46:33.821Z,21.70
2023-04-06T14:49:05.978Z,21.80
2023-04-06T14:51:38.303Z,21.80
2023-04-06T14:54:10.395Z,21.80
2023-04-06T14:56:45.111Z,21.80
2023-04-06T14:59:17.246Z,21.80
2023-04-06T15:01:49.419Z,21.70
2023-04-06T15:04:21.732Z,21.70
2023-04-06T15:06:53.862Z,21.60
2023-04-06T15:09:26.231Z,21.50
2023-04-06T15:12:01.839Z,21.40
2023-04-06T15:14:33.956Z,21.20
2023-04-06T15:17:06.580Z,21.00
2023-04-06T15:19:38.663Z,20.80
2023-04-06T15:22:12.531Z,20.40
2023-04-06T15:24:44.638Z,20.10
2023-04-06T15:27:19.273Z,19.70
2023-04-06T15:29:51.453Z,19.50
2023-04-06T15:32:23.804Z,19.20
2023-04-06T15:34:58.722Z,19.00
2023-04-06T15:37:30.790Z,18.80
2023-04-06T15:40:03.217Z,18.50
2023-04-06T15:42:37.842Z,18.30
2023-04-06T15:45:11.336Z,18.10
2023-04-06T15:47:45.563Z,18.00
2023-04-06T15:50:18.906Z,17.70
2023-04-06T15:52:51.348Z,17.60
2023-04-06T15:55:23.612Z,17.40
2023-04-06T15:57:58.382Z,17.20
2023-04-06T16:00:30.588Z,17.00
2023-04-06T16:03:02.801Z,16.80
2023-04-06T16:05:39.923Z,16.60
2023-04-06T16:08:21.178Z,16.50
2023-04-06T16:10:53.240Z,16.30
2023-04-06T16:13:27.926Z,16.30
2023-04-06T16:16:00.058Z,16.20
2023-04-06T16:18:34.131Z,16.10
2023-04-06T16:21:07.976Z,16.00
2023-04-06T16:23:42.174Z,15.80
2023-04-06T16:26:15.186Z,15.70
2023-04-06T16:28:51.544Z,15.60
2023-04-06T16:31:24.804Z,15.60
2023-04-06T16:33:57.886Z,15.50
2023-04-06T16:36:32.204Z,15.40
2023-04-06T16:39:04.437Z,15.40
2023-04-06T16:41:37.083Z,15.30
2023-04-06T16:44:13.217Z,15.20
2023-04-06T16:46:45.438Z,15.20
2023-04-06T16:49:19.529Z,15.10
2023-04-06T16:51:52.123Z,15.00
2023-04-06T16:54:24.274Z,14.90
2023-04-06T16:56:56.785Z,14.90
2023-04-06T16:59:31.639Z,14.80
2023-04-06T17:02:03.795Z,14.70
2023-04-06T17:04:37.781Z,14.70
2023-04-06T17:07:10.952Z,14.60
2023-04-06T17:09:43.104Z,14.60
2023-04-06T17:12:15.983Z,14.50
2023-04-06T17:14:51.459Z,14.50
2023-04-06T17:17:24.257Z,14.40
2023-04-06T17:19:56.561Z,14.40
2023-04-06T17:22:28.619Z,14.30
2023-04-06T17:25:02.682Z,14.30
2023-04-06T17:27:34.885Z,14.20
2023-04-06T17:30:11.039Z,14.20
2023-04-06T17:32:44.159Z,14.10
2023-04-06T17:35:16.522Z,14.10
2023-04-06T17:37:48.600Z,14.00
2023-04-06T17:40:20.920Z,14.00
2023-04-06T17:42:53.357Z,13.90
2023-04-06T17:45:28.049Z,13.90
2023-04-06T17:48:00.256Z,13.80
2023-04-06T17:50:32.389Z,13.80
2023-04-06T17:53:05.165Z,13.70
2023-04-06T17:55:37.288Z,13.70
2023-04-06T17:58:09.351Z,13.70
2023-04-06T18:00:44.114Z,13.60
2023-04-06T18:03:16.301Z,13.60
2023-04-06T18:05:48.463Z,13.70
2023-04-06T18:08:22.533Z,13.60
2023-04-06T18:10:54.746Z,13.80
2023-04-06T18:13:27.532Z,13.50
2023-04-06T18:16:03.604Z,13.40
2023-04-06T18:18:36.242Z,13.40
2023-04-06T18:21:08.499Z,13.30
2023-04-06T18:23:40.677Z,13.30
2023-04-06T18:26:17.905Z,13.30
2023-04-06T18:28:50.133Z,13.20
2023-04-06T18:31:24.818Z,13.20
2023-04-06T18:33:57.220Z,13.20
2023-04-06T18:36:29.479Z,13.10
2023-04-06T18:39:01.609Z,13.20
2023-04-06T18:41:34.521Z,13.10
2023-04-06T18:44:06.870Z,13.10
2023-04-06T18:46:44.503Z,13.10
2023-04-06T18:49:16.655Z,13.10
2023-04-06T18:51:48.753Z,13.10
2023-04-06T18:54:21.386Z,13.10
2023-04-06T18:56:53.464Z,13.00
2023-04-06T18:59:30.272Z,13.00
2023-04-06T19:02:05.103Z,13.00
2023-04-06T19:04:37.550Z,13.00
2023-04-06T19:07:09.712Z,12.90
2023-04-06T19:09:41.792Z,12.90
2023-04-06T19:12:13.865Z,12.90
2023-04-06T19:14:51.770Z,12.80
2023-04-06T19:17:27.126Z,12.80
2023-04-06T19:19:59.449Z,12.80
2023-04-06T19:22:31.647Z,12.80
2023-04-06T19:25:04.458Z,12.70
2023-04-06T19:27:36.768Z,12.70
2023-04-06T19:30:10.055Z,12.60
2023-04-06T19:32:44.872Z,12.70
2023-04-06T19:35:17.024Z,12.70
2023-04-06T19:37:49.128Z,12.60
2023-04-06T19:40:21.253Z,12.60
2023-04-06T19:42:53.510Z,12.60
2023-04-06T19:45:25.630Z,12.60
2023-04-06T19:48:00.472Z,12.60
2023-04-06T19:50:32.690Z,12.60
2023-04-06T19:53:05.121Z,12.60
2023-04-06T19:55:37.585Z,12.60
2023-04-06T19:58:09.727Z,12.60
2023-04-06T20:00:41.825Z,12.50
2023-04-06T20:03:16.729Z,12.50
2023-04-06T20:05:48.974Z,12.40
2023-04-06T20:08:22.634Z,12.40
2023-04-06T20:11:00.989Z,12.30
2023-04-06T20:13:33.372Z,12.30
2023-04-06T20:16:05.625Z,12.20
2023-04-06T20:18:40.451Z,12.20
2023-04-06T20:21:12.525Z,12.10
2023-04-06T20:23:44.776Z,12.00
2023-04-06T20:26:17.143Z,12.00
2023-04-06T20:28:49.480Z,11.90
2023-04-06T20:31:25.513Z,11.90
2023-04-06T20:34:00.604Z,11.80
2023-04-06T20:36:34.367Z,11.80
2023-04-06T20:39:07.230Z,11.70
2023-04-06T20:41:39.289Z,11.70
2023-04-06T20:44:11.349Z,11.60
2023-04-06T20:46:45.886Z,11.50
2023-04-06T20:49:23.646Z,11.50
2023-04-06T20:51:55.714Z,11.40
2023-04-06T20:54:29.627Z,11.40
2023-04-06T20:57:02.023Z,11.30
2023-04-06T20:59:34.109Z,11.30
2023-04-06T21:02:06.282Z,11.20
2023-04-06T21:04:41.186Z,11.20
2023-04-06T21:07:13.441Z,11.10
2023-04-06T21:09:45.576Z,11.00
2023-04-06T21:12:17.675Z,11.00
2023-04-06T21:14:49.726Z,11.00
2023-04-06T21:17:22.295Z,10.90
2023-04-06T21:19:56.926Z,10.90
2023-04-06T21:22:29.010Z,10.90
2023-04-06T21:25:01.087Z,11.00
2023-04-06T21:27:33.170Z,11.20
2023-04-06T21:30:06.508Z,11.40
2023-04-06T21:32:38.615Z,11.70
2023-04-06T21:35:13.580Z,11.90
2023-04-06T21:37:45.656Z,12.10
2023-04-06T21:40:19.189Z,12.20
2023-04-06T21:42:51.322Z,12.40
2023-04-06T21:45:23.425Z,12.50
2023-04-06T21:47:55.783Z,12.70
2023-04-06T21:50:30.608Z,12.80
2023-04-06T21:53:02.691Z,13.00
2023-04-06T21:55:35.151Z,13.20
2023-04-06T21:58:07.472Z,13.40
2023-04-06T22:00:39.577Z,13.60
2023-04-06T22:03:11.714Z,13.80
2023-04-06T22:05:46.530Z,14.00
2023-04-06T22:08:32.764Z,14.10
2023-04-06T22:11:11.478Z,14.20
2023-04-06T22:13:44.113Z,14.30
2023-04-06T22:16:18.703Z,14.40
2023-04-06T22:18:50.894Z,14.50
2023-04-06T22:21:26.649Z,14.50
2023-04-06T22:23:58.703Z,14.50
2023-04-06T22:26:30.849Z,14.50
2023-04-06T22:29:02.938Z,14.60
2023-04-06T22:31:34.993Z,14.60
2023-04-06T22:34:07.107Z,14.70
2023-04-06T22:36:41.774Z,14.80
2023-04-06T22:39:13.898Z,14.80
2023-04-06T22:41:46.150Z,14.80
2023-04-06T22:44:18.556Z,14.80
2023-04-06T22:46:50.942Z,14.80
2023-04-06T22:49:23.086Z,14.70
2023-04-06T22:51:57.753Z,14.40
2023-04-06T22:54:30.038Z,14.00
2023-04-06T22:57:03.068Z,13.70
2023-04-06T22:59:35.159Z,13.40
2023-04-06T23:02:07.433Z,13.00
2023-04-06T23:04:39.539Z,12.70
2023-04-06T23:07:15.596Z,12.50
2023-04-06T23:09:47.724Z,12.30
2023-04-06T23:12:19.771Z,12.00
2023-04-06T23:14:51.834Z,11.90
2023-04-06T23:17:24.084Z,11.70
2023-04-06T23:19:56.375Z,11.50
2023-04-06T23:22:31.383Z,11.40
2023-04-06T23:25:03.834Z,11.30
2023-04-06T23:27:36.098Z,11.20
2023-04-06T23:30:09.506Z,11.10
2023-04-06T23:32:41.800Z,11.00
2023-04-06T23:35:14.398Z,10.90
2023-04-06T23:37:49.107Z,10.80
2023-04-06T23:40:21.363Z,10.70
2023-04-06T23:42:53.403Z,10.70
2023-04-06T23:45:25.649Z,10.60
2023-04-06T23:47:57.761Z,10.40
2023-04-06T23:50:29.835Z,10.30
2023-04-06T23:53:04.875Z,10.30
2023-04-06T23:55:37.103Z,10.10
2023-04-06T23:58:09.207Z,10.10
